createdAt,value
2023-03-23T16:01:24.797Z,7.30
2023-03-23T16:06:34.645Z,5.60
2023-03-23T16:11:39.529Z,7.50
2023-03-23T16:16:49.690Z,7.88
2023-03-23T16:21:56.116Z,14.68
2023-03-23T16:27:01.092Z,12.98
2023-03-23T16:32:05.491Z,30.02
2023-03-23T16:37:13.566Z,21.27
2023-03-23T16:42:17.639Z,36.85
2023-03-23T16:47:23.523Z,31.83
2023-03-23T16:52:28.931Z,14.82
2023-03-23T16:57:35.722Z,17.20
2023-03-23T17:02:43.993Z,11.40
2023-03-23T17:07:50.029Z,14.23
2023-03-23T17:12:55.042Z,19.17
2023-03-23T17:17:59.182Z,18.05
2023-03-23T17:23:05.163Z,13.73
2023-03-23T17:28:09.388Z,19.95
2023-03-23T17:33:14.305Z,36.75
2023-03-23T17:38:19.758Z,27.02
2023-03-23T17:43:24.094Z,25.05
2023-03-23T17:48:29.830Z,15.73
2023-03-23T17:53:36.812Z,51.38
2023-03-23T17:58:42.751Z,75.57
2023-03-23T18:03:46.877Z,47.60
2023-03-23T18:08:52.223Z,45.72
2023-03-23T18:13:56.854Z,41.05
2023-03-23T18:19:01.154Z,27.67
2023-03-23T18:24:08.090Z,33.13
2023-03-23T18:29:13.054Z,26.35
2023-03-23T18:34:17.111Z,22.02
2023-03-23T18:39:22.605Z,23.00
2023-03-23T18:44:26.590Z,20.23
2023-03-23T18:49:33.840Z,18.00
2023-03-23T18:54:40.658Z,20.23
2023-03-23T18:59:44.689Z,32.28
2023-03-23T19:04:51.056Z,37.13
2023-03-23T19:09:57.071Z,29.52
2023-03-23T19:15:01.341Z,28.27
2023-03-23T19:20:14.648Z,23.67
2023-03-23T19:25:26.718Z,22.30
2023-03-23T19:30:32.868Z,20.60
2023-03-23T19:35:42.380Z,25.15
2023-03-23T19:46:00.064Z,15.90
2023-03-23T19:51:04.993Z,13.35
2023-03-23T19:56:14.829Z,18.23
2023-03-23T20:01:19.242Z,12.88
2023-03-23T20:06:29.264Z,16.60
2023-03-23T20:11:35.502Z,14.00
2023-03-23T20:16:39.672Z,12.73
2023-03-23T20:21:44.903Z,12.63
2023-03-23T20:26:50.429Z,13.38
2023-03-23T20:31:54.522Z,10.48
2023-03-23T20:36:59.445Z,12.35
2023-03-23T20:47:34.793Z,7.97
2023-03-23T20:52:40.320Z,13.48
2023-03-23T20:57:45.926Z,13.43
2023-03-23T21:02:54.226Z,15.68
2023-03-23T21:07:58.465Z,22.88
2023-03-23T21:13:04.427Z,16.65
2023-03-23T21:18:10.640Z,18.05
2023-03-23T21:23:15.217Z,22.17
2023-03-23T21:28:22.194Z,15.57
2023-03-23T21:33:26.773Z,23.52
2023-03-23T21:38:32.486Z,19.52
2023-03-23T21:43:40.872Z,16.33
2023-03-23T21:48:45.641Z,17.27
2023-03-23T21:53:50.235Z,16.05
2023-03-23T21:58:56.100Z,12.65
2023-03-23T22:04:00.235Z,12.82
2023-03-23T22:09:07.259Z,12.18
2023-03-23T22:14:12.963Z,14.75
2023-03-23T22:19:17.307Z,12.57
2023-03-23T22:24:21.527Z,10.68
2023-03-23T22:29:27.441Z,9.82
2023-03-23T22:34:32.675Z,8.27
2023-03-23T22:39:36.906Z,9.77
2023-03-23T22:44:42.671Z,10.90
2023-03-23T22:49:46.813Z,10.60
2023-03-23T22:54:51.028Z,9.82
2023-03-23T22:59:56.712Z,9.65
2023-03-23T23:05:00.900Z,9.40
2023-03-23T23:10:06.239Z,8.75
2023-03-23T23:15:14.565Z,9.18
2023-03-23T23:20:20.235Z,18.67
2023-03-23T23:25:25.054Z,16.05
2023-03-23T23:30:31.820Z,12.88
2023-03-23T23:35:54.553Z,13.85
2023-03-23T23:40:59.272Z,10.35
2023-03-23T23:46:04.949Z,10.05
2023-03-23T23:51:10.069Z,10.35
2023-03-23T23:56:15.279Z,10.52
